createdAt,value
2017-04-06T00:00:30.400Z,7.30
2017-04-06T00:01:29.813Z,7.20
2017-04-06T00:02:29.250Z,7.20
2017-04-06T00:03:28.596Z,7.20
2017-04-06T00:04:27.970Z,7.30
2017-04-06T00:05:27.353Z,7.20
2017-04-06T00:06:27.104Z,7.20
2017-04-06T00:07:26.508Z,7.10
2017-04-06T00:08:25.831Z,7.10
2017-04-06T00:09:25.149Z,7.00
2017-04-06T00:10:24.529Z,7.00
2017-04-06T00:11:24.632Z,6.90
2017-04-06T00:12:24.050Z,6.90
2017-04-06T00:13:23.481Z,6.90
2017-04-06T00:14:22.816Z,6.80
2017-04-06T00:15:22.385Z,6.80
2017-04-06T00:16:21.851Z,6.80
2017-04-06T00:17:21.193Z,6.80
2017-04-06T00:18:20.587Z,6.80
2017-04-06T00:19:20.888Z,6.80
2017-04-06T00:20:20.252Z,6.80
2017-04-06T00:21:19.541Z,6.80
2017-04-06T00:22:18.845Z,6.80
2017-04-06T00:23:18.145Z,6.80
2017-04-06T00:24:17.529Z,6.80
2017-04-06T00:25:18.083Z,6.80
2017-04-06T00:26:17.366Z,6.80
2017-04-06T00:27:16.644Z,6.80
2017-04-06T00:28:15.980Z,6.80
2017-04-06T00:29:15.311Z,6.70
2017-04-06T00:30:14.651Z,6.70
2017-04-06T00:31:14.023Z,6.70
2017-04-06T00:32:13.624Z,6.70
2017-04-06T00:33:12.937Z,6.80
2017-04-06T00:34:12.265Z,6.80
2017-04-06T00:35:11.616Z,6.90
2017-04-06T00:36:11.009Z,6.80
2017-04-06T00:37:10.358Z,6.80
2017-04-06T00:38:09.759Z,6.80
2017-04-06T00:39:09.150Z,6.90
2017-04-06T00:40:08.522Z,6.90
2017-04-06T00:41:07.922Z,7.00
2017-04-06T00:42:07.227Z,7.00
2017-04-06T00:43:06.659Z,7.00
2017-04-06T00:44:05.916Z,7.00
2017-04-06T00:45:05.255Z,7.00
2017-04-06T00:46:04.593Z,6.90
2017-04-06T00:47:04.022Z,6.90
2017-04-06T00:48:03.334Z,6.80
2017-04-06T00:49:02.710Z,6.80
2017-04-06T00:50:02.053Z,6.80
2017-04-06T00:51:01.434Z,6.80
2017-04-06T00:52:03.517Z,6.80
2017-04-06T00:53:02.984Z,6.70
2017-04-06T00:54:02.273Z,6.70
2017-04-06T00:55:01.592Z,6.70
2017-04-06T00:56:00.948Z,6.70
2017-04-06T00:57:00.253Z,6.70
2017-04-06T00:57:59.510Z,6.70
2017-04-06T00:58:58.934Z,6.60
2017-04-06T00:59:58.259Z,6.60
2017-04-06T01:00:58.043Z,6.50
2017-04-06T01:01:57.399Z,6.50
2017-04-06T01:02:57.264Z,6.50
2017-04-06T01:03:56.651Z,6.50
2017-04-06T01:04:55.980Z,6.50
2017-04-06T01:05:55.383Z,6.50
2017-04-06T01:06:54.691Z,6.50
2017-04-06T01:07:54.070Z,6.50
2017-04-06T01:08:53.428Z,6.30
2017-04-06T01:09:53.482Z,6.40
2017-04-06T01:10:52.855Z,6.40
2017-04-06T01:11:52.194Z,6.40
2017-04-06T01:12:51.558Z,6.40
2017-04-06T01:13:50.848Z,6.40
2017-04-06T01:14:50.137Z,6.40
2017-04-06T01:15:49.462Z,6.30
2017-04-06T01:16:48.751Z,6.20
2017-04-06T01:17:48.043Z,6.20
2017-04-06T01:18:47.328Z,6.10
2017-04-06T01:19:46.679Z,6.20
2017-04-06T01:20:46.109Z,6.30
2017-04-06T01:21:45.401Z,6.30
2017-04-06T01:22:44.765Z,6.30
2017-04-06T01:23:44.102Z,6.20
2017-04-06T01:24:43.415Z,6.30
2017-04-06T01:25:42.686Z,6.30
2017-04-06T01:26:42.039Z,6.30
2017-04-06T01:27:41.331Z,6.20
2017-04-06T01:28:40.638Z,6.30
2017-04-06T01:29:39.947Z,6.20
2017-04-06T01:30:39.256Z,6.10
2017-04-06T01:31:38.748Z,6.20
2017-04-06T01:32:38.090Z,6.10
2017-04-06T01:33:37.481Z,6.10
2017-04-06T01:34:36.866Z,6.10
2017-04-06T01:35:36.315Z,6.00
2017-04-06T01:36:35.630Z,6.10
2017-04-06T01:37:34.971Z,6.00
2017-04-06T01:38:34.239Z,6.00
2017-04-06T01:39:33.551Z,6.00
2017-04-06T01:40:32.842Z,6.00
2017-04-06T01:41:32.225Z,6.10
2017-04-06T01:42:31.619Z,6.10
2017-04-06T01:43:30.920Z,6.10
2017-04-06T01:44:30.215Z,6.10
2017-04-06T01:45:29.770Z,6.00
2017-04-06T01:46:29.062Z,6.00
2017-04-06T01:47:28.593Z,6.00
2017-04-06T01:48:28.670Z,5.90
2017-04-06T01:49:28.024Z,5.90
2017-04-06T01:50:27.383Z,5.90
2017-04-06T01:51:27.512Z,5.90
2017-04-06T01:52:26.925Z,5.80
2017-04-06T01:53:26.286Z,5.80
2017-04-06T01:54:25.660Z,5.80
2017-04-06T01:55:25.059Z,5.80
2017-04-06T01:56:25.156Z,5.90
2017-04-06T01:57:24.539Z,5.90
2017-04-06T01:58:23.851Z,5.90
2017-04-06T01:59:23.949Z,5.90
2017-04-06T02:00:23.290Z,5.90
2017-04-06T02:01:22.634Z,5.80
2017-04-06T02:02:22.085Z,5.80
2017-04-06T02:03:21.414Z,5.80
2017-04-06T02:04:20.687Z,5.90
2017-04-06T02:05:19.970Z,5.80
2017-04-06T02:06:19.264Z,5.80
2017-04-06T02:07:19.077Z,5.80
2017-04-06T02:08:18.383Z,5.80
2017-04-06T02:09:18.478Z,5.90
2017-04-06T02:10:17.781Z,5.80
2017-04-06T02:11:17.892Z,5.70
2017-04-06T02:12:18.318Z,5.80
2017-04-06T02:13:17.622Z,5.70
2017-04-06T02:14:16.954Z,5.80
2017-04-06T02:15:16.243Z,5.70
2017-04-06T02:16:15.599Z,5.70
2017-04-06T02:17:14.962Z,5.70
2017-04-06T02:18:15.060Z,5.70
2017-04-06T02:19:14.340Z,5.70
2017-04-06T02:20:13.818Z,5.60
2017-04-06T02:21:13.159Z,5.60
2017-04-06T02:22:12.464Z,5.60
2017-04-06T02:23:11.802Z,5.60
2017-04-06T02:24:11.169Z,5.50
2017-04-06T02:25:10.487Z,5.50
2017-04-06T02:26:09.791Z,5.50
2017-04-06T02:27:09.032Z,5.40
2017-04-06T02:28:08.436Z,5.40
2017-04-06T02:29:07.790Z,5.50
2017-04-06T02:30:07.106Z,5.50
2017-04-06T02:31:06.431Z,5.50
2017-04-06T02:32:05.755Z,5.50
2017-04-06T02:33:05.924Z,5.50
2017-04-06T02:34:05.265Z,5.50
2017-04-06T02:35:04.537Z,5.50
2017-04-06T02:36:04.646Z,5.40
2017-04-06T02:37:04.716Z,5.40
2017-04-06T02:38:04.103Z,5.40
2017-04-06T02:39:03.465Z,5.40
2017-04-06T02:40:02.767Z,5.50
2017-04-06T02:41:02.124Z,5.50
2017-04-06T02:42:02.166Z,5.50
2017-04-06T02:43:01.872Z,5.40
2017-04-06T02:44:01.208Z,5.50
2017-04-06T02:45:00.522Z,5.50
2017-04-06T02:45:59.796Z,5.50
2017-04-06T02:46:59.118Z,5.50
2017-04-06T02:47:58.446Z,5.40
2017-04-06T02:48:57.810Z,5.40
2017-04-06T02:49:57.147Z,5.40
2017-04-06T02:50:56.463Z,5.40
2017-04-06T02:51:55.853Z,5.40
2017-04-06T02:52:55.873Z,5.40
2017-04-06T02:53:55.173Z,5.40
2017-04-06T02:54:54.465Z,5.40
2017-04-06T02:55:53.809Z,5.40
2017-04-06T02:56:53.132Z,5.30
2017-04-06T02:57:53.154Z,5.40
2017-04-06T02:58:52.485Z,5.40
2017-04-06T02:59:51.849Z,5.40
2017-04-06T03:00:51.316Z,5.30
2017-04-06T03:01:51.014Z,5.30
2017-04-06T03:03:49.928Z,5.30
2017-04-06T03:04:49.261Z,5.30
2017-04-06T03:05:48.583Z,5.30
2017-04-06T03:06:47.884Z,5.20
2017-04-06T03:07:47.198Z,5.30
2017-04-06T03:08:46.951Z,5.30
2017-04-06T03:09:46.240Z,5.30
2017-04-06T03:10:46.291Z,5.30
2017-04-06T03:11:45.593Z,5.30
2017-04-06T03:12:44.917Z,5.20
2017-04-06T03:13:44.308Z,5.20
2017-04-06T03:14:43.654Z,5.20
2017-04-06T03:15:42.940Z,5.20
2017-04-06T03:16:42.425Z,5.20
2017-04-06T03:17:41.793Z,5.10
2017-04-06T03:18:41.079Z,5.10
2017-04-06T03:19:41.183Z,5.10
2017-04-06T03:21:40.058Z,5.20
2017-04-06T03:22:39.376Z,5.20
2017-04-06T03:23:38.698Z,5.10
2017-04-06T03:24:38.046Z,5.10
2017-04-06T03:25:38.100Z,5.20
2017-04-06T03:26:37.389Z,5.10
2017-04-06T03:27:36.731Z,5.10
2017-04-06T03:28:36.784Z,5.10
2017-04-06T03:29:36.094Z,5.10
2017-04-06T03:30:35.490Z,5.10
2017-04-06T03:31:34.778Z,5.00
2017-04-06T03:32:34.120Z,5.10
2017-04-06T03:33:33.436Z,5.10
2017-04-06T03:34:32.795Z,5.10
2017-04-06T03:35:32.250Z,5.10
2017-04-06T03:36:31.541Z,5.10
2017-04-06T03:37:30.863Z,5.10
2017-04-06T03:38:30.924Z,5.00
2017-04-06T03:39:30.268Z,5.00
2017-04-06T03:40:30.305Z,5.00
2017-04-06T03:41:29.746Z,5.00
2017-04-06T03:42:29.024Z,5.00
2017-04-06T03:43:28.346Z,4.90
2017-04-06T03:44:28.528Z,4.90
2017-04-06T03:45:27.885Z,5.00
2017-04-06T03:46:27.191Z,5.00
2017-04-06T03:47:26.535Z,5.00
2017-04-06T03:48:25.843Z,5.00
2017-04-06T03:49:25.208Z,5.00
2017-04-06T03:50:25.261Z,5.00
2017-04-06T03:51:24.605Z,5.00
2017-04-06T03:52:24.651Z,5.00
2017-04-06T03:53:24.019Z,5.00
2017-04-06T03:54:23.433Z,4.90
2017-04-06T03:55:22.773Z,4.90
2017-04-06T03:56:22.095Z,4.90
2017-04-06T03:57:21.378Z,4.90
2017-04-06T03:58:20.718Z,4.90
2017-04-06T03:59:20.036Z,4.90
2017-04-06T04:00:19.396Z,5.00
2017-04-06T04:01:18.759Z,4.90
2017-04-06T04:02:18.060Z,4.90
2017-04-06T04:03:18.129Z,4.90
2017-04-06T04:04:17.500Z,4.90
2017-04-06T04:05:16.874Z,4.90
2017-04-06T04:06:16.474Z,4.90
2017-04-06T04:07:15.737Z,4.90
2017-04-06T04:08:15.040Z,4.80
2017-04-06T04:10:18.359Z,4.80
2017-04-06T04:11:17.690Z,4.80
2017-04-06T04:12:17.008Z,4.80
2017-04-06T04:13:16.319Z,4.80
2017-04-06T04:14:15.639Z,4.90
2017-04-06T04:15:15.701Z,4.90
2017-04-06T04:16:15.086Z,4.80
2017-04-06T04:17:14.430Z,4.80
2017-04-06T04:18:13.753Z,4.80
2017-04-06T04:19:13.090Z,4.80
2017-04-06T04:20:12.776Z,4.80
2017-04-06T04:21:12.123Z,4.80
2017-04-06T04:22:11.465Z,4.80
2017-04-06T04:23:10.775Z,4.90
2017-04-06T04:24:10.834Z,4.80
2017-04-06T04:25:10.192Z,4.80
2017-04-06T04:26:10.326Z,4.80
2017-04-06T04:27:09.662Z,4.80
2017-04-06T04:29:09.343Z,4.80
2017-04-06T04:30:08.734Z,4.80
2017-04-06T04:31:08.572Z,4.80
2017-04-06T04:32:09.696Z,4.80
2017-04-06T04:33:09.057Z,4.80
2017-04-06T04:34:08.617Z,4.80
2017-04-06T04:35:08.747Z,4.80
2017-04-06T04:36:08.112Z,4.80
2017-04-06T04:37:08.205Z,4.70
2017-04-06T04:38:07.557Z,4.70
2017-04-06T04:39:06.842Z,4.70
2017-04-06T04:40:06.116Z,4.70
2017-04-06T04:41:05.463Z,4.70
2017-04-06T04:42:04.767Z,4.80
2017-04-06T04:43:05.434Z,4.70
2017-04-06T04:44:04.735Z,4.80
2017-04-06T04:45:04.747Z,4.70
2017-04-06T04:46:04.366Z,4.70
2017-04-06T04:47:03.661Z,4.80
2017-04-06T04:48:02.954Z,4.80
2017-04-06T04:49:02.375Z,4.90
2017-04-06T04:50:01.746Z,5.00
2017-04-06T04:51:01.067Z,5.10
2017-04-06T04:52:00.521Z,5.10
2017-04-06T04:53:00.571Z,5.10
2017-04-06T04:53:59.929Z,5.10
2017-04-06T04:54:59.912Z,5.10
2017-04-06T04:55:59.415Z,5.20
2017-04-06T04:56:59.478Z,5.20
2017-04-06T04:57:58.785Z,5.20
2017-04-06T04:58:58.071Z,5.20
2017-04-06T04:59:57.360Z,5.20
2017-04-06T05:00:56.632Z,5.20
2017-04-06T05:01:55.980Z,5.20
2017-04-06T05:02:55.290Z,5.20
2017-04-06T05:03:55.301Z,5.30
2017-04-06T05:04:55.350Z,5.30
2017-04-06T05:05:56.212Z,5.30
2017-04-06T05:06:55.543Z,5.30
2017-04-06T05:07:54.876Z,5.30
2017-04-06T05:08:54.170Z,5.40
2017-04-06T05:09:53.459Z,5.40
2017-04-06T05:10:52.747Z,5.40
2017-04-06T05:11:52.060Z,5.30
2017-04-06T05:12:52.052Z,5.30
2017-04-06T05:13:51.458Z,5.30
2017-04-06T05:14:51.564Z,5.20
2017-04-06T05:15:50.852Z,5.20
2017-04-06T05:16:50.145Z,5.10
2017-04-06T05:17:49.432Z,5.10
2017-04-06T05:18:48.848Z,5.10
2017-04-06T05:19:48.860Z,5.10
2017-04-06T05:20:48.187Z,5.10
2017-04-06T05:21:47.534Z,5.10
2017-04-06T05:22:47.592Z,5.00
2017-04-06T05:23:46.896Z,5.00
2017-04-06T05:24:46.297Z,5.00
2017-04-06T05:25:45.596Z,5.00
2017-04-06T05:26:45.266Z,5.10
2017-04-06T05:27:44.559Z,5.10
2017-04-06T05:28:43.866Z,5.10
2017-04-06T05:29:43.153Z,5.10
2017-04-06T05:30:42.437Z,5.10
2017-04-06T05:31:41.724Z,5.10
2017-04-06T05:32:41.086Z,5.10
2017-04-06T05:33:41.308Z,5.10
2017-04-06T05:34:40.566Z,5.10
2017-04-06T05:35:39.867Z,5.10
2017-04-06T05:36:39.169Z,5.10
2017-04-06T05:37:38.508Z,5.20
2017-04-06T05:38:39.133Z,5.20
2017-04-06T05:39:38.455Z,5.20
2017-04-06T05:40:37.878Z,5.20
2017-04-06T05:41:37.234Z,5.20
2017-04-06T05:42:36.705Z,5.20
2017-04-06T05:43:35.995Z,5.10
2017-04-06T05:44:35.254Z,5.10
2017-04-06T05:45:34.567Z,5.10
2017-04-06T05:46:33.874Z,5.10
2017-04-06T05:47:33.175Z,5.10
2017-04-06T05:48:33.230Z,5.10
2017-04-06T05:49:32.502Z,5.20
2017-04-06T05:50:31.831Z,5.30
2017-04-06T05:51:31.092Z,5.40
2017-04-06T05:52:30.507Z,5.40
2017-04-06T05:53:29.927Z,5.30
2017-04-06T05:54:31.579Z,5.30
2017-04-06T05:55:31.208Z,5.40
2017-04-06T05:56:30.542Z,5.30
2017-04-06T05:57:29.929Z,5.40
2017-04-06T05:58:29.266Z,5.40
2017-04-06T05:59:28.619Z,5.40
2017-04-06T06:00:28.685Z,5.40
2017-04-06T06:01:27.967Z,5.40
2017-04-06T06:02:27.356Z,5.40
2017-04-06T06:03:26.629Z,5.50
2017-04-06T06:04:25.908Z,5.50
2017-04-06T06:05:26.405Z,5.50
2017-04-06T06:06:25.726Z,5.60
2017-04-06T06:07:25.068Z,5.60
2017-04-06T06:08:24.682Z,5.60
2017-04-06T06:09:24.027Z,5.60
2017-04-06T06:10:23.350Z,5.70
2017-04-06T06:11:22.641Z,5.70
2017-04-06T06:12:21.978Z,5.70
2017-04-06T06:13:21.260Z,5.70
2017-04-06T06:14:21.343Z,5.80
2017-04-06T06:15:20.715Z,5.80
2017-04-06T06:17:19.673Z,5.80
2017-04-06T06:18:19.009Z,5.80
2017-04-06T06:19:19.091Z,5.80
2017-04-06T06:20:18.417Z,5.90
2017-04-06T06:21:17.704Z,5.90
2017-04-06T06:22:17.046Z,5.80
2017-04-06T06:23:16.558Z,5.80
2017-04-06T06:24:15.865Z,5.90
2017-04-06T06:25:15.220Z,5.90
2017-04-06T06:26:14.668Z,5.90
2017-04-06T06:27:14.070Z,6.00
2017-04-06T06:28:13.429Z,5.90
2017-04-06T06:29:12.681Z,5.90
2017-04-06T06:30:11.947Z,5.80
2017-04-06T06:31:12.512Z,5.80
2017-04-06T06:32:11.991Z,5.90
2017-04-06T06:33:11.524Z,6.00
2017-04-06T06:34:10.766Z,6.00
2017-04-06T06:35:10.120Z,6.10
2017-04-06T06:37:09.132Z,6.20
2017-04-06T06:38:09.231Z,6.20
2017-04-06T06:39:09.218Z,6.30
2017-04-06T06:40:08.477Z,6.30
2017-04-06T06:41:07.790Z,6.40
2017-04-06T06:42:07.174Z,6.40
2017-04-06T06:43:06.490Z,6.40
2017-04-06T06:44:06.524Z,6.40
2017-04-06T06:45:05.843Z,6.40
2017-04-06T06:46:05.149Z,6.50
2017-04-06T06:48:04.347Z,6.50
2017-04-06T06:49:03.669Z,6.50
2017-04-06T06:50:06.573Z,6.50
2017-04-06T06:51:05.891Z,6.60
2017-04-06T06:52:05.195Z,6.50
2017-04-06T06:53:05.686Z,6.40
2017-04-06T06:54:05.023Z,6.50
2017-04-06T06:55:04.332Z,6.60
2017-04-06T06:56:04.417Z,6.60
2017-04-06T06:57:03.763Z,6.70
2017-04-06T06:58:03.116Z,6.70
2017-04-06T06:59:03.132Z,6.70
2017-04-06T07:00:02.416Z,6.70
2017-04-06T07:01:02.529Z,6.70
2017-04-06T07:02:01.829Z,6.60
2017-04-06T07:03:01.219Z,6.60
2017-04-06T07:04:00.562Z,6.60
2017-04-06T07:04:59.856Z,6.70
2017-04-06T07:05:59.139Z,6.80
2017-04-06T07:06:58.457Z,6.80
2017-04-06T07:07:58.457Z,6.90
2017-04-06T07:08:58.528Z,6.90
2017-04-06T07:09:57.812Z,7.00
2017-04-06T07:10:57.148Z,6.90
2017-04-06T07:11:56.404Z,6.90
2017-04-06T07:12:55.712Z,6.90
2017-04-06T07:13:55.035Z,6.90
2017-04-06T07:14:55.050Z,7.00
2017-04-06T07:15:54.301Z,7.10
2017-04-06T07:16:54.618Z,7.10
2017-04-06T07:17:53.884Z,7.10
2017-04-06T07:18:53.192Z,7.10
2017-04-06T07:19:52.460Z,7.20
2017-04-06T07:20:51.718Z,7.10
2017-04-06T07:21:51.031Z,7.20
2017-04-06T07:22:50.307Z,7.30
2017-04-06T07:23:49.745Z,7.30
2017-04-06T07:24:49.036Z,7.30
2017-04-06T07:25:48.355Z,7.20
2017-04-06T07:26:47.599Z,7.30
2017-04-06T07:27:46.848Z,7.30
2017-04-06T07:28:46.152Z,7.30
2017-04-06T07:29:45.460Z,7.40
2017-04-06T07:30:45.473Z,7.40
2017-04-06T07:31:44.755Z,7.40
2017-04-06T07:32:44.020Z,7.50
2017-04-06T07:33:43.308Z,7.50
2017-04-06T07:34:49.558Z,7.50
2017-04-06T07:35:48.856Z,7.50
2017-04-06T07:36:48.594Z,7.60
2017-04-06T07:37:48.088Z,7.60
2017-04-06T07:38:47.537Z,7.70
2017-04-06T07:39:46.977Z,7.70
2017-04-06T07:40:46.333Z,7.60
2017-04-06T07:41:45.784Z,7.70
2017-04-06T07:42:45.183Z,7.80
2017-04-06T07:43:45.326Z,7.80
2017-04-06T07:44:44.867Z,7.90
2017-04-06T07:45:44.259Z,7.90
2017-04-06T07:46:43.709Z,7.90
2017-04-06T07:47:43.095Z,8.00
2017-04-06T07:48:42.497Z,8.00
2017-04-06T07:49:41.902Z,8.00
2017-04-06T07:50:41.504Z,8.10
2017-04-06T07:51:40.985Z,8.10
2017-04-06T07:52:40.491Z,8.10
2017-04-06T07:53:39.969Z,8.20
2017-04-06T07:54:39.373Z,8.20
2017-04-06T07:55:38.820Z,8.20
2017-04-06T07:56:39.408Z,8.20
2017-04-06T07:57:39.760Z,8.10
2017-04-06T07:58:39.273Z,8.10
2017-04-06T07:59:38.827Z,8.10
2017-04-06T08:00:38.253Z,8.10
2017-04-06T08:01:37.645Z,8.20
2017-04-06T08:02:37.099Z,8.20
2017-04-06T08:03:36.526Z,8.20
2017-04-06T08:04:36.109Z,8.20
2017-04-06T08:05:36.274Z,8.30
2017-04-06T08:06:35.814Z,8.30
2017-04-06T08:07:35.969Z,8.30
2017-04-06T08:08:35.409Z,8.30
2017-04-06T08:09:34.804Z,8.30
2017-04-06T08:10:34.219Z,8.30
2017-04-06T08:11:34.486Z,8.40
2017-04-06T08:12:34.361Z,8.40
2017-04-06T08:13:33.807Z,8.30
2017-04-06T08:14:33.196Z,8.40
2017-04-06T08:15:32.738Z,8.40
2017-04-06T08:16:32.645Z,8.40
2017-04-06T08:17:32.063Z,8.40
2017-04-06T08:18:31.422Z,8.50
2017-04-06T08:19:31.130Z,8.50
2017-04-06T08:20:30.575Z,8.50
2017-04-06T08:21:30.209Z,8.50
2017-04-06T08:22:29.718Z,8.50
2017-04-06T08:23:29.180Z,8.60
2017-04-06T08:24:29.922Z,8.60
2017-04-06T08:25:29.632Z,8.60
2017-04-06T08:26:30.036Z,8.70
2017-04-06T08:27:29.422Z,8.70
2017-04-06T08:28:30.619Z,8.70
2017-04-06T08:29:30.046Z,8.70
2017-04-06T08:30:30.278Z,8.80
2017-04-06T08:31:29.681Z,8.70
2017-04-06T08:32:29.335Z,8.80
2017-04-06T08:33:28.736Z,8.80
2017-04-06T08:34:28.865Z,8.80
2017-04-06T08:35:32.816Z,8.80
2017-04-06T08:36:36.073Z,8.80
2017-04-06T08:37:42.956Z,8.90
2017-04-06T08:38:49.801Z,8.90
2017-04-06T08:39:49.442Z,8.90
2017-04-06T08:40:48.906Z,9.00
2017-04-06T08:41:48.295Z,9.00
2017-04-06T08:42:47.642Z,9.10
2017-04-06T08:43:47.036Z,9.10
2017-04-06T08:44:47.172Z,9.20
2017-04-06T08:45:46.636Z,9.20
2017-04-06T08:46:46.770Z,9.20
2017-04-06T08:47:46.170Z,9.20
2017-04-06T08:48:46.289Z,9.10
2017-04-06T08:49:45.691Z,9.10
2017-04-06T08:50:45.199Z,9.10
2017-04-06T08:51:44.586Z,9.10
2017-04-06T08:52:44.198Z,9.10
2017-04-06T08:53:43.597Z,9.10
2017-04-06T08:54:43.718Z,9.00
2017-04-06T08:55:43.885Z,9.10
2017-04-06T08:56:43.850Z,9.10
2017-04-06T08:57:43.257Z,9.20
2017-04-06T08:58:42.649Z,9.20
2017-04-06T08:59:42.009Z,9.30
2017-04-06T09:00:41.380Z,9.30
2017-04-06T09:01:40.788Z,9.40
2017-04-06T09:02:40.279Z,9.50
2017-04-06T09:03:39.749Z,9.40
2017-04-06T09:04:39.127Z,9.50
2017-04-06T09:05:38.514Z,9.40
2017-04-06T09:06:37.881Z,9.40
2017-04-06T09:07:38.030Z,9.40
2017-04-06T09:08:37.478Z,9.40
2017-04-06T09:09:36.972Z,9.40
2017-04-06T09:10:36.378Z,9.40
2017-04-06T09:11:35.811Z,9.40
2017-04-06T09:12:35.151Z,9.60
2017-04-06T09:13:34.545Z,9.60
2017-04-06T09:14:33.999Z,9.70
2017-04-06T09:15:34.914Z,9.70
2017-04-06T09:16:34.296Z,9.70
2017-04-06T09:17:33.768Z,9.70
2017-04-06T09:18:33.192Z,9.80
2017-04-06T09:19:32.554Z,9.70
2017-04-06T09:20:31.928Z,9.80
2017-04-06T09:21:32.095Z,9.80
2017-04-06T09:22:31.482Z,9.90
2017-04-06T09:23:40.235Z,9.80
2017-04-06T09:24:43.127Z,9.90
2017-04-06T09:25:52.041Z,9.90
2017-04-06T09:26:52.189Z,9.90
2017-04-06T09:27:51.524Z,9.90
2017-04-06T09:28:51.082Z,9.90
2017-04-06T09:29:50.725Z,9.90
2017-04-06T09:30:54.148Z,9.90
2017-04-06T09:31:54.237Z,9.90
2017-04-06T09:32:55.567Z,9.90
2017-04-06T09:33:54.970Z,9.90
2017-04-06T09:34:55.896Z,9.90
2017-04-06T09:35:56.792Z,10.00
2017-04-06T09:36:57.647Z,10.00
2017-04-06T09:37:57.978Z,10.10
2017-04-06T09:39:02.147Z,10.10
2017-04-06T09:40:03.797Z,10.20
2017-04-06T09:41:04.536Z,10.20
2017-04-06T09:42:05.055Z,10.30
2017-04-06T09:43:05.732Z,10.40
2017-04-06T09:44:06.124Z,10.50
2017-04-06T09:45:07.814Z,10.60
2017-04-06T09:46:08.267Z,10.60
2017-04-06T09:47:09.413Z,10.50
2017-04-06T09:48:08.822Z,10.50
2017-04-06T09:49:08.275Z,10.50
2017-04-06T09:50:09.912Z,10.50
2017-04-06T09:51:09.667Z,10.50
2017-04-06T09:52:09.024Z,10.50
2017-04-06T09:53:08.478Z,10.50
2017-04-06T09:54:07.887Z,10.50
2017-04-06T09:55:19.875Z,10.50
2017-04-06T09:56:20.057Z,10.50
2017-04-06T09:57:19.505Z,10.50
2017-04-06T09:58:18.927Z,10.40
2017-04-06T09:59:18.368Z,10.30
2017-04-06T10:00:17.808Z,10.30
2017-04-06T10:01:17.570Z,10.50
2017-04-06T10:02:17.129Z,10.50
2017-04-06T10:03:16.915Z,10.50
2017-04-06T10:04:16.746Z,10.50
2017-04-06T10:05:16.160Z,10.60
2017-04-06T10:06:16.473Z,10.50
2017-04-06T10:07:17.885Z,10.50
2017-04-06T10:08:17.451Z,10.50
2017-04-06T10:09:17.599Z,10.50
2017-04-06T10:10:17.677Z,10.50
2017-04-06T10:11:17.740Z,10.50
2017-04-06T10:12:17.905Z,10.60
2017-04-06T10:13:17.712Z,10.60
2017-04-06T10:14:18.230Z,10.70
2017-04-06T10:15:18.153Z,10.70
2017-04-06T10:16:17.564Z,10.90
2017-04-06T10:17:16.967Z,10.90
2017-04-06T10:18:17.078Z,10.90
2017-04-06T10:19:16.454Z,11.00
2017-04-06T10:20:15.841Z,11.10
2017-04-06T10:21:15.217Z,11.10
2017-04-06T10:22:14.652Z,11.20
2017-04-06T10:23:14.005Z,11.10
2017-04-06T10:24:13.349Z,11.00
2017-04-06T10:25:12.783Z,11.00
2017-04-06T10:26:12.155Z,10.90
2017-04-06T10:27:11.551Z,10.90
2017-04-06T10:28:10.922Z,10.90
2017-04-06T10:29:10.351Z,10.90
2017-04-06T10:30:09.764Z,10.90
2017-04-06T10:31:09.190Z,11.00
2017-04-06T10:32:08.569Z,11.10
2017-04-06T10:33:07.931Z,11.00
2017-04-06T10:34:07.340Z,11.00
2017-04-06T10:35:06.720Z,11.00
2017-04-06T10:36:06.101Z,11.10
2017-04-06T10:37:05.810Z,11.20
2017-04-06T10:38:05.231Z,11.20
2017-04-06T10:39:05.314Z,11.30
2017-04-06T10:40:04.694Z,11.40
2017-04-06T10:41:04.112Z,11.50
2017-04-06T10:42:03.551Z,11.60
2017-04-06T10:43:02.941Z,11.70
2017-04-06T10:44:02.289Z,11.80
2017-04-06T10:45:01.645Z,11.80
2017-04-06T10:46:01.046Z,11.80
2017-04-06T10:47:00.467Z,11.80
2017-04-06T10:47:59.883Z,11.70
2017-04-06T10:48:59.306Z,11.70
2017-04-06T10:49:58.729Z,11.70
2017-04-06T10:50:58.822Z,11.70
2017-04-06T10:51:58.190Z,11.60
2017-04-06T10:52:57.652Z,11.50
2017-04-06T10:53:57.028Z,11.40
2017-04-06T10:54:56.378Z,11.40
2017-04-06T10:55:55.710Z,11.30
2017-04-06T10:56:55.080Z,11.40
2017-04-06T10:57:54.509Z,11.40
2017-04-06T10:58:53.915Z,11.50
2017-04-06T10:59:53.248Z,11.50
2017-04-06T11:00:52.628Z,11.60
2017-04-06T11:01:52.045Z,11.70
2017-04-06T11:02:51.435Z,11.70
2017-04-06T11:04:50.555Z,11.90
2017-04-06T11:05:49.953Z,11.80
2017-04-06T11:06:49.363Z,11.70
2017-04-06T11:07:48.810Z,11.70
2017-04-06T11:08:48.198Z,11.70
2017-04-06T11:09:47.543Z,11.70
2017-04-06T11:10:46.935Z,11.70
2017-04-06T11:11:46.302Z,11.80
2017-04-06T11:12:46.015Z,11.80
2017-04-06T11:13:45.387Z,11.90
2017-04-06T11:14:44.889Z,12.00
2017-04-06T11:15:44.253Z,12.10
2017-04-06T11:16:44.408Z,12.10
2017-04-06T11:17:43.853Z,12.20
2017-04-06T11:18:44.027Z,12.20
2017-04-06T11:19:43.432Z,12.30
2017-04-06T11:20:42.880Z,12.20
2017-04-06T11:21:43.023Z,12.00
2017-04-06T11:22:42.498Z,12.00
2017-04-06T11:23:41.948Z,11.80
2017-04-06T11:24:41.320Z,11.80
2017-04-06T11:25:40.821Z,11.80
2017-04-06T11:26:41.012Z,11.80
2017-04-06T11:27:40.451Z,11.80
2017-04-06T11:28:39.884Z,11.90
2017-04-06T11:29:39.346Z,11.90
2017-04-06T11:30:38.787Z,12.00
2017-04-06T11:31:38.221Z,11.90
2017-04-06T11:32:37.650Z,11.80
2017-04-06T11:33:37.142Z,11.70
2017-04-06T11:34:36.518Z,11.70
2017-04-06T11:35:35.978Z,11.60
2017-04-06T11:36:36.169Z,11.60
2017-04-06T11:37:35.668Z,11.60
2017-04-06T11:38:35.235Z,11.60
2017-04-06T11:39:34.673Z,11.60
2017-04-06T11:40:34.088Z,11.60
2017-04-06T11:41:33.507Z,11.60
2017-04-06T11:42:35.385Z,11.40
2017-04-06T11:43:35.571Z,11.40
2017-04-06T11:44:35.060Z,11.40
2017-04-06T11:45:34.544Z,11.40
2017-04-06T11:46:34.179Z,11.50
2017-04-06T11:47:33.561Z,11.60
2017-04-06T11:48:33.443Z,11.70
2017-04-06T11:49:32.820Z,11.70
2017-04-06T11:50:32.174Z,11.80
2017-04-06T11:51:31.564Z,11.90
2017-04-06T11:52:30.964Z,11.90
2017-04-06T11:53:30.424Z,12.00
2017-04-06T11:54:29.855Z,12.00
2017-04-06T11:55:29.233Z,11.90
2017-04-06T11:56:28.629Z,11.90
2017-04-06T11:57:28.033Z,11.90
2017-04-06T11:58:27.436Z,11.90
2017-04-06T11:59:27.645Z,11.90
2017-04-06T12:00:27.120Z,11.90
2017-04-06T12:01:26.496Z,11.80
2017-04-06T12:02:25.971Z,11.80
2017-04-06T12:03:25.328Z,11.70
2017-04-06T12:04:25.523Z,11.70
2017-04-06T12:05:25.678Z,11.50
2017-04-06T12:06:25.369Z,11.50
2017-04-06T12:07:26.042Z,11.50
2017-04-06T12:08:25.454Z,11.60
2017-04-06T12:09:24.899Z,11.60
2017-04-06T12:10:24.407Z,11.60
2017-04-06T12:11:23.834Z,11.60
2017-04-06T12:12:23.977Z,11.60
2017-04-06T12:13:23.750Z,11.70
2017-04-06T12:14:23.225Z,11.80
2017-04-06T12:15:22.625Z,11.80
2017-04-06T12:16:22.023Z,11.80
2017-04-06T12:17:22.745Z,11.70
2017-04-06T12:18:22.341Z,11.80
2017-04-06T12:19:21.782Z,11.80
2017-04-06T12:20:21.143Z,11.70
2017-04-06T12:21:21.337Z,11.60
2017-04-06T12:22:20.720Z,11.60
2017-04-06T12:23:20.167Z,11.70
2017-04-06T12:24:19.942Z,11.70
2017-04-06T12:25:19.468Z,11.70
2017-04-06T12:26:20.570Z,11.60
2017-04-06T12:27:19.990Z,11.70
2017-04-06T12:28:20.365Z,11.70
2017-04-06T12:29:20.909Z,11.80
2017-04-06T12:30:20.350Z,11.80
2017-04-06T12:31:20.331Z,11.80
2017-04-06T12:32:19.746Z,11.80
2017-04-06T12:33:19.158Z,11.70
2017-04-06T12:34:18.587Z,11.70
2017-04-06T12:35:18.369Z,11.80
2017-04-06T12:36:18.143Z,11.70
2017-04-06T12:37:17.515Z,11.80
2017-04-06T12:38:16.957Z,11.80
2017-04-06T12:39:19.815Z,11.90
2017-04-06T12:40:19.268Z,12.00
2017-04-06T12:41:18.618Z,12.00
2017-04-06T12:42:18.029Z,12.00
2017-04-06T12:43:19.258Z,12.10
2017-04-06T12:44:18.671Z,12.10
2017-04-06T12:45:18.008Z,12.10
2017-04-06T12:46:17.319Z,12.10
2017-04-06T12:47:17.409Z,12.20
2017-04-06T12:48:16.697Z,12.20
2017-04-06T12:49:15.982Z,12.00
2017-04-06T12:51:15.690Z,11.90
2017-04-06T12:52:15.118Z,12.00
2017-04-06T12:53:14.459Z,11.90
2017-04-06T12:54:14.090Z,11.80
2017-04-06T12:55:14.555Z,11.80
2017-04-06T12:56:13.918Z,11.80
2017-04-06T12:57:13.338Z,11.80
2017-04-06T12:58:12.686Z,11.80
2017-04-06T12:59:12.768Z,11.70
2017-04-06T13:00:12.409Z,11.60
2017-04-06T13:01:11.929Z,11.60
2017-04-06T13:02:11.893Z,11.70
2017-04-06T13:03:12.216Z,11.70
2017-04-06T13:04:11.738Z,11.70
2017-04-06T13:05:11.075Z,11.80
2017-04-06T13:06:10.464Z,11.90
2017-04-06T13:07:09.904Z,11.90
2017-04-06T13:08:09.296Z,12.00
2017-04-06T13:09:08.673Z,12.10
2017-04-06T13:10:08.744Z,12.00
2017-04-06T13:11:08.108Z,12.10
2017-04-06T13:12:07.412Z,12.00
2017-04-06T13:13:06.720Z,12.00
2017-04-06T13:14:08.362Z,12.00
2017-04-06T13:15:07.813Z,12.10
2017-04-06T13:16:07.187Z,12.00